createdAt,value
2022-08-28T00:01:40.970Z,4.80
2022-08-28T00:04:11.615Z,4.97
2022-08-28T00:06:41.054Z,4.95
2022-08-28T00:09:11.509Z,4.80
2022-08-28T00:11:41.214Z,5.20
2022-08-28T00:14:11.757Z,4.85
2022-08-28T00:16:40.969Z,4.63
2022-08-28T00:19:12.379Z,4.65
2022-08-28T00:21:41.870Z,4.47
2022-08-28T00:24:11.429Z,5.05
2022-08-28T00:27:03.426Z,5.68
2022-08-28T00:29:33.445Z,5.32
2022-08-28T00:32:03.905Z,5.22
2022-08-28T00:34:34.501Z,5.00
2022-08-28T00:37:03.778Z,5.47
2022-08-28T00:39:33.160Z,5.57
2022-08-28T00:42:02.405Z,5.22
2022-08-28T00:44:31.742Z,5.47
2022-08-28T00:47:01.300Z,5.47
2022-08-28T00:49:32.769Z,5.13
2022-08-28T00:52:08.235Z,5.28
2022-08-28T00:54:59.415Z,5.20
2022-08-28T00:57:32.665Z,5.13
2022-08-28T01:00:01.954Z,5.40
2022-08-28T01:02:32.037Z,4.95
2022-08-28T01:05:01.415Z,5.05
2022-08-28T01:07:32.246Z,5.15
2022-08-28T01:10:01.676Z,5.40
2022-08-28T01:12:33.375Z,5.03
2022-08-28T01:15:09.583Z,4.95
2022-08-28T01:17:43.101Z,5.43
2022-08-28T01:20:16.848Z,4.70
2022-08-28T01:22:57.456Z,4.82
2022-08-28T01:25:34.111Z,4.85
2022-08-28T01:28:05.389Z,4.90
2022-08-28T01:30:35.974Z,4.60
2022-08-28T01:33:05.188Z,4.88
2022-08-28T01:35:41.004Z,5.22
2022-08-28T01:38:10.377Z,5.10
2022-08-28T01:40:42.988Z,4.90
2022-08-28T01:43:14.533Z,5.03
2022-08-28T01:45:45.881Z,5.65
2022-08-28T01:48:17.200Z,5.22
2022-08-28T01:50:46.487Z,5.57
2022-08-28T01:53:17.319Z,4.85
2022-08-28T01:55:48.036Z,5.30
2022-08-28T01:58:17.462Z,5.28
2022-08-28T02:00:46.672Z,5.50
2022-08-28T02:03:15.856Z,5.65
2022-08-28T02:05:46.165Z,5.68
2022-08-28T02:08:15.796Z,4.93
2022-08-28T02:10:45.715Z,5.50
2022-08-28T02:13:16.832Z,5.40
2022-08-28T02:15:47.076Z,5.60
2022-08-28T02:18:17.478Z,5.78
2022-08-28T02:20:46.755Z,5.57
2022-08-28T02:23:16.568Z,5.72
2022-08-28T02:25:45.901Z,5.40
2022-08-28T02:28:18.237Z,5.13
2022-08-28T02:30:47.567Z,5.38
2022-08-28T02:33:17.433Z,5.50
2022-08-28T02:35:46.639Z,5.57
2022-08-28T02:38:16.044Z,4.90
2022-08-28T02:40:48.273Z,5.30
2022-08-28T02:43:18.898Z,5.72
2022-08-28T02:45:48.411Z,5.53
2022-08-28T02:48:17.903Z,6.00
2022-08-28T02:50:47.597Z,6.22
2022-08-28T02:53:16.763Z,5.82
2022-08-28T02:55:46.745Z,6.25
2022-08-28T02:58:15.923Z,5.97
2022-08-28T03:00:46.531Z,5.75
2022-08-28T03:03:15.898Z,6.03
2022-08-28T03:05:45.145Z,5.55
2022-08-28T03:08:14.433Z,5.82
2022-08-28T03:10:43.783Z,5.50
2022-08-28T03:13:23.081Z,5.18
2022-08-28T03:15:59.175Z,5.88
2022-08-28T03:18:30.317Z,5.60
2022-08-28T03:20:59.567Z,5.55
2022-08-28T03:23:28.902Z,5.68
2022-08-28T03:26:00.367Z,5.80
2022-08-28T03:28:33.970Z,6.03
2022-08-28T03:31:04.587Z,4.88
2022-08-28T03:33:34.947Z,4.97
2022-08-28T03:36:04.797Z,5.60
2022-08-28T03:38:34.704Z,5.60
2022-08-28T03:41:03.971Z,5.20
2022-08-28T03:43:33.572Z,5.10
2022-08-28T03:46:06.671Z,5.50
2022-08-28T03:48:38.218Z,5.72
2022-08-28T03:51:13.779Z,5.82
2022-08-28T03:53:44.723Z,5.75
2022-08-28T03:56:17.568Z,5.82
2022-08-28T03:58:46.914Z,5.90
2022-08-28T04:01:17.583Z,5.78
2022-08-28T04:03:47.211Z,6.07
2022-08-28T04:06:17.193Z,5.90
2022-08-28T04:08:46.603Z,5.72
2022-08-28T04:11:16.268Z,5.38
2022-08-28T04:13:46.285Z,6.25
2022-08-28T04:16:19.316Z,6.15
2022-08-28T04:18:50.399Z,6.03
2022-08-28T04:21:22.677Z,5.93
2022-08-28T04:23:52.097Z,5.43
2022-08-28T04:26:24.030Z,5.70
2022-08-28T04:28:55.274Z,5.43
2022-08-28T04:31:32.367Z,5.55
2022-08-28T04:34:02.622Z,5.22
2022-08-28T04:36:33.907Z,5.50
2022-08-28T04:39:05.382Z,4.85
2022-08-28T04:41:34.679Z,5.20
2022-08-28T04:44:04.251Z,5.15
2022-08-28T04:46:35.076Z,5.32
2022-08-28T04:49:06.006Z,5.40
2022-08-28T04:51:40.002Z,4.70
2022-08-28T04:54:12.190Z,5.00
2022-08-28T04:56:41.720Z,5.15
2022-08-28T04:59:11.818Z,5.07
2022-08-28T05:01:44.003Z,5.00
2022-08-28T05:04:14.159Z,4.82
2022-08-28T05:06:46.588Z,4.82
2022-08-28T05:09:17.828Z,4.95
2022-08-28T05:11:48.465Z,5.07
2022-08-28T05:14:18.065Z,4.93
2022-08-28T05:16:50.715Z,5.65
2022-08-28T05:19:21.280Z,4.80
2022-08-28T05:21:50.706Z,4.80
2022-08-28T05:24:20.337Z,4.75
2022-08-28T05:26:49.750Z,4.57
2022-08-28T05:29:19.577Z,4.97
2022-08-28T05:31:50.556Z,4.95
2022-08-28T05:34:20.625Z,4.70
2022-08-28T05:36:50.188Z,4.82
2022-08-28T05:39:19.777Z,5.20
2022-08-28T05:41:49.063Z,4.55
2022-08-28T05:44:19.824Z,5.28
2022-08-28T05:46:51.274Z,4.38
2022-08-28T05:49:21.223Z,4.90
2022-08-28T05:51:51.268Z,5.05
2022-08-28T05:54:20.486Z,4.70
2022-08-28T05:56:49.828Z,4.95
2022-08-28T05:59:19.198Z,4.70
2022-08-28T06:01:51.235Z,4.32
2022-08-28T06:04:23.924Z,4.78
2022-08-28T06:06:53.640Z,5.10
2022-08-28T06:09:28.992Z,5.03
2022-08-28T06:12:01.752Z,4.88
2022-08-28T06:14:32.558Z,5.15
2022-08-28T06:17:04.147Z,4.75
2022-08-28T06:19:39.308Z,4.18
2022-08-28T06:22:12.442Z,5.15
2022-08-28T06:24:41.885Z,4.75
2022-08-28T06:27:11.082Z,4.65
2022-08-28T06:29:41.615Z,4.90
2022-08-28T06:32:12.505Z,5.35
2022-08-28T06:34:41.833Z,6.10
2022-08-28T06:37:11.092Z,6.05
2022-08-28T06:39:40.410Z,6.38
2022-08-28T06:42:09.632Z,5.90
2022-08-28T06:44:40.657Z,6.10
2022-08-28T06:47:11.712Z,6.22
2022-08-28T06:49:41.340Z,6.00
2022-08-28T06:52:10.603Z,6.20
2022-08-28T06:54:39.775Z,6.15
2022-08-28T06:57:09.665Z,5.80
2022-08-28T06:59:38.825Z,5.95
2022-08-28T07:02:09.384Z,6.10
2022-08-28T07:04:40.242Z,6.10
2022-08-28T07:07:10.639Z,5.80
2022-08-28T07:09:58.895Z,5.25
2022-08-28T07:12:28.161Z,5.60
2022-08-28T07:14:57.397Z,5.15
2022-08-28T07:17:26.659Z,4.95
2022-08-28T07:19:57.270Z,5.15
2022-08-28T07:22:26.724Z,4.93
2022-08-28T07:24:56.013Z,5.50
2022-08-28T07:27:26.385Z,5.25
2022-08-28T07:29:55.560Z,5.40
2022-08-28T07:32:24.746Z,5.25
2022-08-28T07:34:53.941Z,4.95
2022-08-28T07:37:24.734Z,5.18
2022-08-28T07:39:54.304Z,5.20
2022-08-28T07:42:41.269Z,5.30
2022-08-28T07:45:11.555Z,4.90
2022-08-28T07:47:42.411Z,4.50
2022-08-28T07:50:11.874Z,4.78
2022-08-28T07:52:43.107Z,4.80
2022-08-28T07:55:12.458Z,4.57
2022-08-28T07:57:43.362Z,4.90
2022-08-28T08:00:13.619Z,5.18
2022-08-28T08:02:43.762Z,5.13
2022-08-28T08:05:14.518Z,4.50
2022-08-28T08:07:45.282Z,5.10
2022-08-28T08:10:19.945Z,4.38
2022-08-28T08:12:49.918Z,4.80
2022-08-28T08:15:21.727Z,4.75
2022-08-28T08:17:51.914Z,4.25
2022-08-28T08:20:21.399Z,4.80
2022-08-28T08:22:52.119Z,5.03
2022-08-28T08:25:21.344Z,4.72
2022-08-28T08:27:52.858Z,4.53
2022-08-28T08:30:22.167Z,4.38
2022-08-28T08:32:52.336Z,4.55
2022-08-28T08:35:23.853Z,4.45
2022-08-28T08:37:54.489Z,4.25
2022-08-28T08:40:23.859Z,4.30
2022-08-28T08:42:57.368Z,4.47
2022-08-28T08:45:29.587Z,4.30
2022-08-28T08:47:59.191Z,4.45
2022-08-28T08:50:32.412Z,4.50
2022-08-28T08:53:23.195Z,4.18
2022-08-28T08:55:54.689Z,4.07
2022-08-28T08:58:29.009Z,4.05
2022-08-28T09:01:06.356Z,3.95
2022-08-28T09:03:50.379Z,4.30
2022-08-28T09:06:28.343Z,3.65
2022-08-28T09:09:03.836Z,4.53
2022-08-28T09:11:43.803Z,3.95
2022-08-28T09:14:20.870Z,4.25
2022-08-28T09:16:57.965Z,3.72
2022-08-28T09:19:27.314Z,4.43
2022-08-28T09:21:56.518Z,4.18
2022-08-28T09:24:30.086Z,4.05
2022-08-28T09:27:02.241Z,4.32
2022-08-28T09:29:34.709Z,5.60
2022-08-28T09:32:21.246Z,6.97
2022-08-28T09:35:12.879Z,6.75
2022-08-28T09:37:44.246Z,6.38
2022-08-28T09:40:54.194Z,7.07
2022-08-28T09:43:27.673Z,8.25
2022-08-28T09:46:00.934Z,11.00
2022-08-28T09:48:36.218Z,12.38
2022-08-28T09:51:08.169Z,14.05
2022-08-28T09:53:39.776Z,10.75
2022-08-28T09:56:19.243Z,9.48
2022-08-28T09:58:52.568Z,8.98
2022-08-28T10:01:52.371Z,7.30
2022-08-28T10:04:38.683Z,6.88
2022-08-28T10:07:15.776Z,7.28
2022-08-28T10:09:56.120Z,7.28
2022-08-28T10:12:39.691Z,6.45
2022-08-28T10:15:16.632Z,6.18
2022-08-28T10:18:01.544Z,6.75
2022-08-28T10:20:46.387Z,6.45
2022-08-28T10:23:25.171Z,6.55
2022-08-28T10:26:01.342Z,6.40
2022-08-28T10:28:46.273Z,5.93
2022-08-28T10:31:21.835Z,6.40
2022-08-28T10:34:05.099Z,6.57
2022-08-28T10:36:36.499Z,6.60
2022-08-28T10:39:20.009Z,5.88
2022-08-28T10:41:52.444Z,6.60
2022-08-28T10:44:27.371Z,6.38
2022-08-28T10:46:59.909Z,6.30
2022-08-28T10:49:36.275Z,6.22
2022-08-28T10:52:09.117Z,5.95
2022-08-28T10:54:43.367Z,6.10
2022-08-28T10:57:29.469Z,6.22
2022-08-28T11:00:02.231Z,6.05
2022-08-28T11:02:32.464Z,5.93
2022-08-28T11:05:03.059Z,6.15
2022-08-28T11:07:36.864Z,6.20
2022-08-28T11:10:23.990Z,6.25
2022-08-28T11:12:54.533Z,6.15
2022-08-28T11:15:46.756Z,6.47
2022-08-28T11:19:01.213Z,6.43
2022-08-28T11:21:36.908Z,5.90
2022-08-28T11:24:10.771Z,6.50
2022-08-28T11:26:58.986Z,5.95
2022-08-28T11:30:01.605Z,5.50
2022-08-28T11:33:02.459Z,5.60
2022-08-28T11:35:46.474Z,5.60
2022-08-28T11:38:49.044Z,5.70
2022-08-28T11:41:22.125Z,5.68
2022-08-28T11:43:53.764Z,5.72
2022-08-28T11:46:32.909Z,5.22
2022-08-28T11:49:06.716Z,5.40
2022-08-28T11:51:59.340Z,5.63
2022-08-28T11:54:47.355Z,5.65
2022-08-28T11:57:20.461Z,5.40
2022-08-28T12:00:06.575Z,5.47
2022-08-28T12:02:51.420Z,5.05
2022-08-28T12:05:50.163Z,5.18
2022-08-28T12:08:56.086Z,5.05
2022-08-28T12:11:50.932Z,5.00
2022-08-28T12:15:03.057Z,4.78
2022-08-28T12:17:53.114Z,4.82
2022-08-28T12:21:03.735Z,5.10
2022-08-28T12:23:45.760Z,5.07
2022-08-28T12:26:25.716Z,5.20
2022-08-28T12:28:58.168Z,4.70
2022-08-28T12:32:16.251Z,4.63
2022-08-28T12:34:51.437Z,5.30
2022-08-28T12:37:39.776Z,4.80
2022-08-28T12:40:26.941Z,4.93
2022-08-28T12:42:59.248Z,4.68
2022-08-28T12:45:37.414Z,5.03
2022-08-28T12:48:17.649Z,4.57
2022-08-28T12:50:47.851Z,4.75
2022-08-28T12:53:19.726Z,4.38
2022-08-28T12:55:49.703Z,4.50
2022-08-28T12:58:32.559Z,4.15
2022-08-28T13:01:05.590Z,4.63
2022-08-28T13:03:35.345Z,5.22
2022-08-28T13:06:09.627Z,5.40
2022-08-28T13:08:40.985Z,5.10
2022-08-28T13:11:11.184Z,4.97
2022-08-28T13:13:49.937Z,5.40
2022-08-28T13:16:38.609Z,5.13
2022-08-28T13:19:32.038Z,4.97
2022-08-28T13:22:04.428Z,5.13
2022-08-28T13:24:45.872Z,4.93
2022-08-28T13:27:22.930Z,4.80
2022-08-28T13:30:09.723Z,4.90
2022-08-28T13:32:40.824Z,4.82
2022-08-28T13:35:41.722Z,5.45
2022-08-28T13:38:12.644Z,4.50
2022-08-28T13:40:58.545Z,4.43
2022-08-28T13:43:30.748Z,4.57
2022-08-28T13:46:00.224Z,4.82
2022-08-28T13:48:30.200Z,4.82
2022-08-28T13:51:05.543Z,4.40
2022-08-28T13:53:40.129Z,4.55
2022-08-28T13:56:10.918Z,4.50
2022-08-28T13:58:40.329Z,4.47
2022-08-28T14:01:09.802Z,4.53
2022-08-28T14:03:38.949Z,4.53
2022-08-28T14:06:13.341Z,4.70
2022-08-28T14:08:44.642Z,4.45
2022-08-28T14:11:17.280Z,4.30
2022-08-28T14:13:55.403Z,4.38
2022-08-28T14:16:25.828Z,4.22
2022-08-28T14:18:55.780Z,4.43
2022-08-28T14:21:25.775Z,4.70
2022-08-28T14:23:55.260Z,4.90
2022-08-28T14:26:26.111Z,4.07
2022-08-28T14:28:55.798Z,4.13
2022-08-28T14:31:26.497Z,4.60
2022-08-28T14:33:56.461Z,4.13
2022-08-28T14:36:27.326Z,4.57
2022-08-28T14:39:00.774Z,4.20
2022-08-28T14:41:34.433Z,4.82
2022-08-28T14:44:04.441Z,4.40
2022-08-28T14:46:36.034Z,4.50
2022-08-28T14:49:07.950Z,4.32
2022-08-28T14:51:39.334Z,4.10
2022-08-28T14:54:11.336Z,4.30
2022-08-28T14:56:43.263Z,4.20
2022-08-28T14:59:20.683Z,4.22
2022-08-28T15:01:54.041Z,3.63
2022-08-28T15:04:26.412Z,4.20
2022-08-28T15:06:59.480Z,4.05
2022-08-28T15:09:29.825Z,4.40
2022-08-28T15:12:00.553Z,3.90
2022-08-28T15:14:30.802Z,3.85
2022-08-28T15:17:00.218Z,3.90
2022-08-28T15:19:30.251Z,4.15
2022-08-28T15:22:00.414Z,3.60
2022-08-28T15:24:33.246Z,3.75
2022-08-28T15:27:04.575Z,3.78
2022-08-28T15:29:33.851Z,3.80
2022-08-28T15:32:03.930Z,3.83
2022-08-28T15:34:33.268Z,4.18
2022-08-28T15:37:02.629Z,3.78
2022-08-28T15:39:54.801Z,3.90
2022-08-28T15:42:25.556Z,3.78
2022-08-28T15:44:57.630Z,3.88
2022-08-28T15:47:27.081Z,4.25
2022-08-28T15:49:57.574Z,4.00
2022-08-28T15:52:26.938Z,3.50
2022-08-28T15:54:56.260Z,3.95
2022-08-28T15:57:27.153Z,4.20
2022-08-28T15:59:56.556Z,3.90
2022-08-28T16:02:27.134Z,3.80
2022-08-28T16:04:56.491Z,3.63
2022-08-28T16:07:26.564Z,3.58
2022-08-28T16:09:55.928Z,3.88
2022-08-28T16:12:26.853Z,4.35
2022-08-28T16:14:56.218Z,3.80
2022-08-28T16:17:25.600Z,3.78
2022-08-28T16:19:55.157Z,3.60
2022-08-28T16:22:24.522Z,3.55
2022-08-28T16:24:53.816Z,3.95
2022-08-28T16:27:26.467Z,3.78
2022-08-28T16:29:56.611Z,3.67
2022-08-28T16:32:26.630Z,3.65
2022-08-28T16:34:56.064Z,3.65
2022-08-28T16:37:37.724Z,3.60
2022-08-28T16:40:10.806Z,3.35
2022-08-28T16:42:41.625Z,3.58
2022-08-28T16:45:17.550Z,3.17
2022-08-28T16:47:46.917Z,3.55
2022-08-28T16:50:16.512Z,3.42
2022-08-28T16:52:45.936Z,3.38
2022-08-28T16:55:19.021Z,3.40
2022-08-28T16:57:49.803Z,3.33
2022-08-28T17:00:19.502Z,3.85
2022-08-28T17:02:48.867Z,3.30
2022-08-28T17:05:20.569Z,3.55
2022-08-28T17:07:50.310Z,4.38
2022-08-28T17:10:22.722Z,3.88
2022-08-28T17:12:54.106Z,3.83
2022-08-28T17:15:23.661Z,4.15
2022-08-28T17:17:53.016Z,3.92
2022-08-28T17:20:39.716Z,4.20
2022-08-28T17:23:09.236Z,5.43
2022-08-28T17:25:38.476Z,6.10
2022-08-28T17:28:09.403Z,5.00
2022-08-28T17:30:39.098Z,5.55
2022-08-28T17:33:08.445Z,5.18
2022-08-28T17:35:38.511Z,4.93
2022-08-28T17:38:11.550Z,5.25
2022-08-28T17:40:41.178Z,5.15
2022-08-28T17:43:11.873Z,5.45
2022-08-28T17:45:41.152Z,4.85
2022-08-28T17:48:10.502Z,5.13
2022-08-28T17:50:40.296Z,5.53
2022-08-28T17:53:10.253Z,4.80
2022-08-28T17:55:39.845Z,5.20
2022-08-28T17:58:09.198Z,4.95
2022-08-28T18:00:41.288Z,4.40
2022-08-28T18:03:11.400Z,4.82
2022-08-28T18:05:42.476Z,4.95
2022-08-28T18:08:12.111Z,4.88
2022-08-28T18:10:41.904Z,5.22
2022-08-28T18:13:11.485Z,4.93
2022-08-28T18:15:43.422Z,4.97
2022-08-28T18:18:14.056Z,5.10
2022-08-28T18:20:43.884Z,4.40
2022-08-28T18:23:13.084Z,4.93
2022-08-28T18:25:48.667Z,4.88
2022-08-28T18:28:22.604Z,4.43
2022-08-28T18:30:54.341Z,4.38
2022-08-28T18:33:25.546Z,4.93
2022-08-28T18:35:55.377Z,4.85
2022-08-28T18:38:28.463Z,4.95
2022-08-28T18:40:59.927Z,4.60
2022-08-28T18:43:29.307Z,4.55
2022-08-28T18:46:01.151Z,4.65
2022-08-28T18:48:31.378Z,4.68
2022-08-28T18:51:00.716Z,4.75
2022-08-28T18:53:30.167Z,5.13
2022-08-28T18:56:02.605Z,5.03
2022-08-28T18:58:32.512Z,5.28
2022-08-28T19:01:05.233Z,5.05
2022-08-28T19:03:34.729Z,4.90
2022-08-28T19:06:04.448Z,5.00
2022-08-28T19:08:35.542Z,4.57
2022-08-28T19:11:09.032Z,4.78
2022-08-28T19:13:39.838Z,4.32
2022-08-28T19:16:11.100Z,4.78
2022-08-28T19:18:40.520Z,4.80
2022-08-28T19:21:16.303Z,4.82
2022-08-28T19:23:55.573Z,4.38
2022-08-28T19:26:26.519Z,4.70
2022-08-28T19:28:56.297Z,4.63
2022-08-28T19:31:29.021Z,4.93
2022-08-28T19:33:59.152Z,4.28
2022-08-28T19:36:30.304Z,4.60
2022-08-28T19:39:01.079Z,4.43
2022-08-28T19:41:30.542Z,4.35
2022-08-28T19:43:59.911Z,4.05
2022-08-28T19:46:30.907Z,4.55
2022-08-28T19:49:03.323Z,4.32
2022-08-28T19:51:33.479Z,4.30
2022-08-28T19:54:03.802Z,4.80
2022-08-28T19:56:35.753Z,4.28
2022-08-28T19:59:07.762Z,4.18
2022-08-28T20:01:40.925Z,4.13
2022-08-28T20:04:13.505Z,4.38
2022-08-28T20:06:43.976Z,4.50
2022-08-28T20:09:13.446Z,4.38
2022-08-28T20:11:47.476Z,4.07
2022-08-28T20:14:18.769Z,4.03
2022-08-28T20:16:52.323Z,4.00
2022-08-28T20:19:21.659Z,4.00
2022-08-28T20:21:51.571Z,4.18
2022-08-28T20:24:24.892Z,4.05
2022-08-28T20:26:54.944Z,4.60
2022-08-28T20:29:25.110Z,4.30
2022-08-28T20:31:55.707Z,4.15
2022-08-28T20:34:26.860Z,4.43
2022-08-28T20:36:56.243Z,4.15
2022-08-28T20:39:25.432Z,4.13
2022-08-28T20:41:54.605Z,4.22
2022-08-28T20:44:24.776Z,4.32
2022-08-28T20:46:55.524Z,4.60
2022-08-28T20:49:24.779Z,4.18
2022-08-28T20:51:56.492Z,4.32
2022-08-28T20:54:28.467Z,3.90
2022-08-28T20:56:59.352Z,4.20
2022-08-28T20:59:37.174Z,4.00
2022-08-28T21:02:13.491Z,4.20
2022-08-28T21:04:43.592Z,4.85
2022-08-28T21:07:13.276Z,4.22
2022-08-28T21:10:05.029Z,4.15
2022-08-28T21:12:32.702Z,4.22
2022-08-28T21:15:02.174Z,3.97
2022-08-28T21:17:32.877Z,4.20
2022-08-28T21:20:04.293Z,4.35
2022-08-28T21:22:35.120Z,4.47
2022-08-28T21:25:06.445Z,4.50
2022-08-28T21:27:36.509Z,4.30
2022-08-28T21:30:07.782Z,4.43
2022-08-28T21:32:38.435Z,4.95
2022-08-28T21:35:11.173Z,4.40
2022-08-28T21:37:41.738Z,4.60
2022-08-28T21:40:13.133Z,4.00
2022-08-28T21:42:42.409Z,4.40
2022-08-28T21:45:13.033Z,4.00
2022-08-28T21:47:44.612Z,4.35
2022-08-28T21:50:14.452Z,4.45
2022-08-28T21:52:43.589Z,4.22
2022-08-28T21:55:15.199Z,4.22
2022-08-28T21:57:44.768Z,4.10
2022-08-28T22:00:18.169Z,4.32
2022-08-28T22:02:49.298Z,4.22
2022-08-28T22:05:19.039Z,4.80
2022-08-28T22:07:48.353Z,4.65
2022-08-28T22:10:17.964Z,4.57
2022-08-28T22:12:47.118Z,4.68
2022-08-28T22:15:16.269Z,4.70
2022-08-28T22:17:45.644Z,5.03
2022-08-28T22:20:16.496Z,5.30
2022-08-28T22:23:03.363Z,4.53
2022-08-28T22:25:32.626Z,4.72
2022-08-28T22:28:11.600Z,4.32
2022-08-28T22:30:40.851Z,4.63
2022-08-28T22:33:10.893Z,4.55
2022-08-28T22:35:41.692Z,4.68
2022-08-28T22:38:11.320Z,4.65
2022-08-28T22:40:40.530Z,4.50
2022-08-28T22:43:09.789Z,5.13
2022-08-28T22:45:39.054Z,4.63
2022-08-28T22:48:08.789Z,4.80
2022-08-28T22:50:38.280Z,4.78
2022-08-28T22:53:09.344Z,4.88
2022-08-28T22:55:42.812Z,4.80
2022-08-28T22:58:14.479Z,4.72
2022-08-28T23:00:43.840Z,4.53
2022-08-28T23:03:13.164Z,4.78
2022-08-28T23:05:42.447Z,4.90
2022-08-28T23:08:13.154Z,4.80
2022-08-28T23:10:58.570Z,4.70
2022-08-28T23:13:28.879Z,4.90
2022-08-28T23:15:58.685Z,4.70
2022-08-28T23:18:27.965Z,4.53
2022-08-28T23:20:57.703Z,5.22
2022-08-28T23:23:28.691Z,4.50
2022-08-28T23:25:57.920Z,4.30
2022-08-28T23:28:27.504Z,4.80
2022-08-28T23:30:56.700Z,4.25
2022-08-28T23:33:25.848Z,5.13
2022-08-28T23:35:54.949Z,4.70
2022-08-28T23:38:24.271Z,4.80
2022-08-28T23:40:57.123Z,4.68
2022-08-28T23:43:26.562Z,4.90
2022-08-28T23:45:56.367Z,4.60
2022-08-28T23:48:26.153Z,5.20
2022-08-28T23:50:55.649Z,4.85
2022-08-28T23:53:24.835Z,4.70
2022-08-28T23:55:54.080Z,4.60
2022-08-28T23:58:25.887Z,5.38
